Etusivu
METAR-TAF:

METAR-TAF

Lentoasemat :

Bergerac, Ranska

Leveyspiiri: 44-49N, Pituuspiiri: 000-31E, korkeus merenpinnasta: 51 m

Tämänhetkinen sää

Tämä raportti tehtiin 19 minuuttia sitten, kello 18.00 UTC
Tuuli 2 kn koillisesta
Lämpötila 28°C
Kosteus 48%
Ilmanpaine 1017 hPa
Näkyvyys 10 km tai enemmän
ei pilviä alle 1500 m:ssä eikä cumulonimbus-pilviä

METAR: LFBE 151800Z AUTO 04002KT CAVOK 28/16 Q1017 NOSIG

Aika: 20:19 (18:19 UTC)

Sääennuste

Tämä raportti tehtiin 7 tuntia ja 19 minuuttia sitten, kello 11.00 UTC
Ennuste voimassa 15. päivästä klo 12 UTC - 16. päivään klo 12 UTC
Tuuli 7 kn pohjoisesta/koillisesta
Näkyvyys 10 km tai enemmän
ei pilviä alle 1500 m:ssä eikä cumulonimbus-pilviä
Tulossa
16. päivästä klo 01 UTC - 16. päivään klo 03 UTC
Tuuli 2 kn eri suunnista
Tulossa
16. päivästä klo 10 UTC - 16. päivään klo 12 UTC
Tuuli 10 kn lännestä/lounaasta

TAF: LFBE 151100Z 1512/1612 02007KT CAVOK BECMG 1601/1603 VRB02KT BECMG 1610/1612 24010KT

Säähavainnot ja -ennusteet yli 4000 lentoasemalta (METAR- ja TAF-raportit).

Käytössä olevat sääasemat on merkitty karttaan keltaisilla ja punaisilla pisteillä.

Aseta hiiri pisteen päälle nähdäksesi sääaseman nimen.

Klikkaa sitten nähdäksesi säähavainnot ja -ennusteet.

Kartan vaihtaminen: klikkaa mustalla rastilla varustettuja vihreitä pisteitä, niin voit zoomata sisään; viivalla varustettua vihreää pistettä, niin voit zoomata ulos tai vihreitä nuolia, niin pääset viereisille kartoille.


METAR-TAF: